Time,TemperatureF,DewpointF,PressureIn,WindDirection,WindDirectionDegrees,WindSpeedMPH,WindSpeedGustMPH,Humidity,HourlyPrecipIn,Conditions,Clouds,dailyrainin,SoftwareType,DateUTC
2013-07-14 00:00:00,62.0,60.8,30.28,SSE,155,0.0,0.0,96,0.00,,,0.00,Wunderground v.1.15,2013-07-14 04:00:00,
2013-07-14 00:05:00,61.8,60.4,30.28,SSE,155,0.0,0.0,95,0.00,,,0.00,Wunderground v.1.15,2013-07-14 04:05:00,
2013-07-14 00:10:00,61.6,60.4,30.28,SSE,155,0.0,0.0,96,0.00,,,0.00,Wunderground v.1.15,2013-07-14 04:10:00,
2013-07-14 00:15:00,61.5,60.3,30.28,SSE,155,0.0,0.0,96,0.00,,,0.00,Wunderground v.1.15,2013-07-14 04:15:00,
2013-07-14 00:20:00,61.4,60.2,30.28,SSE,155,0.0,0.0,96,0.00,,,0.00,Wunderground v.1.15,2013-07-14 04:20:00,
2013-07-14 00:25:00,61.3,60.2,30.28,SSE,155,0.0,0.0,96,0.00,,,0.00,Wunderground v.1.15,2013-07-14 04:25:00,
2013-07-14 00:30:00,61.2,60.1,30.28,SSE,155,0.0,0.0,96,0.00,,,0.00,Wunderground v.1.15,2013-07-14 04:30:00,
2013-07-14 00:35:00,61.1,60.0,30.28,SSE,155,0.0,0.0,96,0.00,,,0.00,Wunderground v.1.15,2013-07-14 04:35:00,
2013-07-14 00:45:00,60.8,59.7,30.28,SSE,155,0.0,0.0,96,0.00,,,0.00,Wunderground v.1.15,2013-07-14 04:45:00,
2013-07-14 00:50:00,60.8,59.7,30.28,SSE,155,0.0,0.0,96,0.00,,,0.00,Wunderground v.1.15,2013-07-14 04:50:00,
2013-07-14 00:55:00,60.6,59.5,30.28,SSE,155,0.0,0.0,96,0.00,,,0.00,Wunderground v.1.15,2013-07-14 04:55:00,
2013-07-14 01:00:00,60.6,59.5,30.28,SSE,155,0.0,0.0,96,0.00,,,0.00,Wunderground v.1.15,2013-07-14 05:00:00,
2013-07-14 01:15:00,60.3,59.2,30.28,SSE,155,0.0,0.0,96,0.00,,,0.00,Wunderground v.1.15,2013-07-14 05:15:00,
2013-07-14 01:20:00,60.2,59.1,30.28,SSE,155,0.0,0.0,96,0.00,,,0.00,Wunderground v.1.15,2013-07-14 05:20:00,
2013-07-14 01:25:00,60.1,59.0,30.28,SSE,155,0.0,0.0,96,0.00,,,0.00,Wunderground v.1.15,2013-07-14 05:25:00,
2013-07-14 01:31:00,60.1,59.2,30.28,SSE,155,0.0,0.0,97,0.00,,,0.00,Wunderground v.1.15,2013-07-14 05:31:00,
2013-07-14 01:35:00,60.1,59.0,30.28,SSE,155,0.0,0.0,96,0.00,,,0.00,Wunderground v.1.15,2013-07-14 05:35:00,
2013-07-14 01:40:00,60.0,59.1,30.28,SSE,155,0.0,0.0,97,0.00,,,0.00,Wunderground v.1.15,2013-07-14 05:40:00,
2013-07-14 01:50:00,59.8,58.7,30.28,SSE,155,0.0,1.0,96,0.00,,,0.00,Wunderground v.1.15,2013-07-14 05:50:00,
2013-07-14 02:00:00,59.6,58.5,30.28,SSE,155,0.0,0.0,96,0.00,,,0.00,Wunderground v.1.15,2013-07-14 06:00:00,
2013-07-14 02:05:00,59.6,58.7,30.28,SSE,155,0.0,0.0,97,0.00,,,0.00,Wunderground v.1.15,2013-07-14 06:05:00,
2013-07-14 02:10:00,59.6,58.7,30.28,SSE,155,0.0,0.0,97,0.00,,,0.00,Wunderground v.1.15,2013-07-14 06:10:00,
2013-07-14 02:15:00,59.5,58.6,30.28,SSE,155,0.0,0.0,97,0.00,,,0.00,Wunderground v.1.15,2013-07-14 06:15:00,
2013-07-14 02:20:00,59.4,58.5,30.27,SSE,155,0.0,0.0,97,0.00,,,0.00,Wunderground v.1.15,2013-07-14 06:20:00,
2013-07-14 02:25:00,59.3,58.4,30.28,SSE,155,0.0,0.0,97,0.00,,,0.00,Wunderground v.1.15,2013-07-14 06:25:00,
2013-07-14 02:30:00,59.2,58.3,30.28,SSE,155,0.0,0.0,97,0.00,,,0.00,Wunderground v.1.15,2013-07-14 06:30:00,
2013-07-14 02:35:00,59.2,58.3,30.28,SSE,155,0.0,0.0,97,0.00,,,0.00,Wunderground v.1.15,2013-07-14 06:35:00,
2013-07-14 02:40:00,59.1,58.2,30.28,SSE,155,0.0,0.0,97,0.00,,,0.00,Wunderground v.1.15,2013-07-14 06:40:00,
2013-07-14 02:51:00,58.9,58.1,30.28,SSE,155,0.0,0.0,97,0.00,,,0.00,Wunderground v.1.15,2013-07-14 06:51:00,
2013-07-14 02:56:00,58.9,58.1,30.28,SSE,155,0.0,0.0,97,0.00,,,0.00,Wunderground v.1.15,2013-07-14 06:56:00,
2013-07-14 03:05:00,58.9,58.1,30.28,SSE,155,0.0,0.0,97,0.00,,,0.00,Wunderground v.1.15,2013-07-14 07:05:00,
2013-07-14 03:10:00,58.9,58.1,30.28,SSE,155,0.0,0.0,97,0.00,,,0.00,Wunderground v.1.15,2013-07-14 07:10:00,
2013-07-14 03:20:00,58.8,58.0,30.28,SSE,155,0.0,0.0,97,0.00,,,0.00,Wunderground v.1.15,2013-07-14 07:20:00,
2013-07-14 03:30:00,59.2,58.6,30.28,SSE,155,0.0,0.0,98,0.00,,,0.00,Wunderground v.1.15,2013-07-14 07:30:00,
2013-07-14 03:35:00,59.5,58.9,30.28,SSE,155,0.0,0.0,98,0.00,,,0.00,Wunderground v.1.15,2013-07-14 07:35:00,
2013-07-14 03:45:00,59.8,59.2,30.28,SSE,155,0.0,0.0,98,0.00,,,0.00,Wunderground v.1.15,2013-07-14 07:45:00,
2013-07-14 03:50:00,59.9,59.3,30.28,SSE,155,0.0,0.0,98,0.00,,,0.00,Wunderground v.1.15,2013-07-14 07:50:00,
2013-07-14 03:55:00,60.1,59.5,30.28,SSE,155,0.0,0.0,98,0.00,,,0.00,Wunderground v.1.15,2013-07-14 07:55:00,
2013-07-14 04:05:00,60.2,59.6,30.28,SSE,155,0.0,0.0,98,0.00,,,0.00,Wunderground v.1.15,2013-07-14 08:05:00,
2013-07-14 04:10:00,60.3,59.7,30.28,SSE,155,0.0,0.0,98,0.00,,,0.00,Wunderground v.1.15,2013-07-14 08:10:00,
2013-07-14 04:21:00,60.6,60.0,30.28,SSE,155,0.0,0.0,98,0.00,,,0.00,Wunderground v.1.15,2013-07-14 08:21:00,
2013-07-14 04:25:00,60.7,60.1,30.28,SSE,155,0.0,0.0,98,0.00,,,0.00,Wunderground v.1.15,2013-07-14 08:25:00,
2013-07-14 04:30:00,60.8,60.2,30.28,SSE,155,0.0,0.0,98,0.00,,,0.00,Wunderground v.1.15,2013-07-14 08:30:00,
2013-07-14 04:40:00,61.0,60.4,30.28,SSE,155,0.0,0.0,98,0.00,,,0.00,Wunderground v.1.15,2013-07-14 08:40:00,
2013-07-14 04:50:00,61.1,60.5,30.29,SSE,155,0.0,0.0,98,0.00,,,0.00,Wunderground v.1.15,2013-07-14 08:50:00,
2013-07-14 04:55:00,61.2,60.6,30.29,SSE,155,0.0,0.0,98,0.00,,,0.00,Wunderground v.1.15,2013-07-14 08:55:00,
2013-07-14 05:00:00,61.3,60.7,30.29,SSE,155,0.0,0.0,98,0.00,,,0.00,Wunderground v.1.15,2013-07-14 09:00:00,
2013-07-14 05:05:00,61.3,60.7,30.29,SSE,155,0.0,0.0,98,0.00,,,0.00,Wunderground v.1.15,2013-07-14 09:05:00,
2013-07-14 05:10:00,61.4,60.8,30.29,SSE,155,0.0,0.0,98,0.00,,,0.00,Wunderground v.1.15,2013-07-14 09:10:00,
2013-07-14 05:15:00,61.5,60.9,30.29,SSE,155,0.0,0.0,98,0.00,,,0.00,Wunderground v.1.15,2013-07-14 09:15:00,
2013-07-14 05:21:00,61.5,60.9,30.29,SSE,155,0.0,0.0,98,0.00,,,0.00,Wunderground v.1.15,2013-07-14 09:21:00,
2013-07-14 05:25:00,61.6,61.0,30.29,SSE,155,0.0,0.0,98,0.00,,,0.00,Wunderground v.1.15,2013-07-14 09:25:00,
2013-07-14 05:30:00,61.6,61.0,30.29,SSE,155,0.0,0.0,98,0.00,,,0.00,Wunderground v.1.15,2013-07-14 09:30:00,
2013-07-14 05:35:00,61.7,61.1,30.28,SSE,155,0.0,0.0,98,0.00,,,0.00,Wunderground v.1.15,2013-07-14 09:35:00,
2013-07-14 05:40:00,61.8,61.2,30.29,SSE,155,0.0,0.0,98,0.00,,,0.00,Wunderground v.1.15,2013-07-14 09:40:00,
2013-07-14 05:45:00,61.8,61.2,30.28,SSE,155,0.0,0.0,98,0.00,,,0.00,Wunderground v.1.15,2013-07-14 09:45:00,
2013-07-14 05:55:00,61.9,61.3,30.28,SSE,155,0.0,0.0,98,0.00,,,0.00,Wunderground v.1.15,2013-07-14 09:55:00,
2013-07-14 06:00:00,62.0,61.4,30.29,SSE,155,0.0,0.0,98,0.00,,,0.00,Wunderground v.1.15,2013-07-14 10:00:00,
2013-07-14 06:05:00,62.1,61.5,30.29,SSE,155,0.0,0.0,98,0.00,,,0.00,Wunderground v.1.15,2013-07-14 10:05:00,
2013-07-14 06:10:00,62.3,61.7,30.29,SSE,155,0.0,0.0,98,0.00,,,0.00,Wunderground v.1.15,2013-07-14 10:10:00,
2013-07-14 06:15:00,62.3,61.7,30.29,SSE,155,0.0,0.0,98,0.00,,,0.00,Wunderground v.1.15,2013-07-14 10:15:00,
2013-07-14 06:20:00,62.4,61.8,30.29,SSE,155,0.0,0.0,98,0.00,,,0.00,Wunderground v.1.15,2013-07-14 10:20:00,
2013-07-14 06:30:00,62.8,62.2,30.30,West,275,0.0,0.0,98,0.00,,,0.00,Wunderground v.1.15,2013-07-14 10:30:00,
2013-07-14 06:35:00,62.9,62.3,30.30,West,275,0.0,0.0,98,0.00,,,0.00,Wunderground v.1.15,2013-07-14 10:35:00,
2013-07-14 06:40:00,63.2,62.6,30.30,West,275,0.0,0.0,98,0.00,,,0.00,Wunderground v.1.15,2013-07-14 10:40:00,
2013-07-14 06:45:00,63.3,62.7,30.29,West,276,0.0,0.0,98,0.00,,,0.00,Wunderground v.1.15,2013-07-14 10:45:00,
2013-07-14 06:55:00,63.6,63.0,30.29,West,275,0.0,0.0,98,0.00,,,0.00,Wunderground v.1.15,2013-07-14 10:55:00,
2013-07-14 07:00:00,63.8,63.2,30.29,West,276,0.0,0.0,98,0.00,,,0.00,Wunderground v.1.15,2013-07-14 11:00:00,
2013-07-14 07:05:00,64.0,63.4,30.30,West,275,0.0,0.0,98,0.00,,,0.00,Wunderground v.1.15,2013-07-14 11:05:00,
2013-07-14 07:15:00,64.7,64.1,30.30,West,276,0.0,0.0,98,0.00,,,0.00,Wunderground v.1.15,2013-07-14 11:15:00,
2013-07-14 07:20:00,65.2,64.9,30.30,West,275,0.0,0.0,99,0.00,,,0.00,Wunderground v.1.15,2013-07-14 11:20:00,
2013-07-14 07:25:00,65.5,65.2,30.30,West,275,0.0,0.0,99,0.00,,,0.00,Wunderground v.1.15,2013-07-14 11:25:00,
2013-07-14 07:30:00,65.8,65.5,30.30,West,275,0.0,0.0,99,0.00,,,0.00,Wunderground v.1.15,2013-07-14 11:30:00,
2013-07-14 07:35:00,66.0,65.7,30.30,West,275,0.0,0.0,99,0.00,,,0.00,Wunderground v.1.15,2013-07-14 11:35:00,
2013-07-14 07:45:00,66.4,65.8,30.30,West,275,0.0,0.0,98,0.00,,,0.00,Wunderground v.1.15,2013-07-14 11:45:00,
2013-07-14 07:50:00,66.7,66.1,30.30,West,275,0.0,0.0,98,0.00,,,0.00,Wunderground v.1.15,2013-07-14 11:50:00,
2013-07-14 07:55:00,66.8,66.2,30.30,West,275,0.0,0.0,98,0.00,,,0.00,Wunderground v.1.15,2013-07-14 11:55:00,
2013-07-14 08:00:00,66.8,65.9,30.30,West,275,0.0,0.0,97,0.00,,,0.00,Wunderground v.1.15,2013-07-14 12:00:00,
2013-07-14 08:05:00,67.1,66.2,30.30,West,276,0.0,0.0,97,0.00,,,0.00,Wunderground v.1.15,2013-07-14 12:05:00,
2013-07-14 08:10:00,67.3,66.1,30.30,West,276,0.0,0.0,96,0.00,,,0.00,Wunderground v.1.15,2013-07-14 12:10:00,
2013-07-14 08:15:00,67.4,66.2,30.30,West,275,0.0,0.0,96,0.00,,,0.00,Wunderground v.1.15,2013-07-14 12:15:00,
2013-07-14 08:20:00,67.6,66.4,30.30,West,276,0.0,0.0,96,0.00,,,0.00,Wunderground v.1.15,2013-07-14 12:20:00,
2013-07-14 08:25:00,67.8,66.3,30.30,West,275,0.0,0.0,95,0.00,,,0.00,Wunderground v.1.15,2013-07-14 12:25:00,
2013-07-14 08:30:00,68.1,66.6,30.30,West,276,0.0,0.0,95,0.00,,,0.00,Wunderground v.1.15,2013-07-14 12:30:00,
2013-07-14 08:35:00,68.4,66.6,30.30,West,275,0.0,0.0,94,0.00,,,0.00,Wunderground v.1.15,2013-07-14 12:35:00,
2013-07-14 08:45:00,68.5,66.7,30.30,West,270,0.0,0.0,94,0.00,,,0.00,Wunderground v.1.15,2013-07-14 12:45:00,
2013-07-14 08:50:00,68.5,66.4,30.30,West,269,0.0,0.0,93,0.00,,,0.00,Wunderground v.1.15,2013-07-14 12:50:00,
2013-07-14 08:55:00,68.6,66.5,30.30,West,269,1.0,1.0,93,0.00,,,0.00,Wunderground v.1.15,2013-07-14 12:55:00,
2013-07-14 09:05:00,69.3,67.2,30.30,West,269,0.0,0.0,93,0.00,,,0.00,Wunderground v.1.15,2013-07-14 13:05:00,
2013-07-14 09:10:00,69.8,67.4,30.30,West,269,0.0,0.0,92,0.00,,,0.00,Wunderground v.1.15,2013-07-14 13:10:00,
2013-07-14 09:15:00,70.4,68.0,30.29,West,269,0.0,0.0,92,0.00,,,0.00,Wunderground v.1.15,2013-07-14 13:15:00,
2013-07-14 09:20:00,71.0,68.2,30.29,West,269,0.0,0.0,91,0.00,,,0.00,Wunderground v.1.15,2013-07-14 13:20:00,
2013-07-14 09:25:00,71.3,67.9,30.29,West,269,0.0,0.0,89,0.00,,,0.00,Wunderground v.1.15,2013-07-14 13:25:00,
2013-07-14 09:30:00,71.6,67.9,30.29,West,269,0.0,0.0,88,0.00,,,0.00,Wunderground v.1.15,2013-07-14 13:30:00,
2013-07-14 09:40:00,72.5,68.7,30.29,NE,39,0.0,0.0,88,0.00,,,0.00,Wunderground v.1.15,2013-07-14 13:40:00,
2013-07-14 09:45:00,72.7,68.6,30.29,NE,44,0.0,1.0,87,0.00,,,0.00,Wunderground v.1.15,2013-07-14 13:45:00,
2013-07-14 09:50:00,73.3,69.2,30.29,NE,44,0.0,1.0,87,0.00,,,0.00,Wunderground v.1.15,2013-07-14 13:50:00,
2013-07-14 09:55:00,73.9,70.1,30.29,NE,44,0.0,0.0,88,0.00,,,0.00,Wunderground v.1.15,2013-07-14 13:55:00,
2013-07-14 10:00:00,74.6,69.8,30.29,NE,46,1.0,1.0,85,0.00,,,0.00,Wunderground v.1.15,2013-07-14 14:00:00,
2013-07-14 10:05:00,75.1,69.9,30.29,ENE,69,1.0,1.0,84,0.00,,,0.00,Wunderground v.1.15,2013-07-14 14:05:00,
2013-07-14 10:10:00,75.2,70.0,30.29,ENE,58,1.0,3.0,84,0.00,,,0.00,Wunderground v.1.15,2013-07-14 14:10:00,
2013-07-14 10:20:00,75.6,70.8,30.29,ENE,69,1.0,1.0,85,0.00,,,0.00,Wunderground v.1.15,2013-07-14 14:20:00,
2013-07-14 10:30:00,76.3,70.8,30.28,East,99,1.0,1.0,83,0.00,,,0.00,Wunderground v.1.15,2013-07-14 14:30:00,
2013-07-14 10:35:00,76.3,69.3,30.28,NNE,16,1.0,1.0,79,0.00,,,0.00,Wunderground v.1.15,2013-07-14 14:35:00,
2013-07-14 10:40:00,76.5,69.9,30.28,NE,36,1.0,3.0,80,0.00,,,0.00,Wunderground v.1.15,2013-07-14 14:40:00,
2013-07-14 10:45:00,76.6,69.2,30.28,NNE,13,1.0,3.0,78,0.00,,,0.00,Wunderground v.1.15,2013-07-14 14:45:00,
2013-07-14 10:50:00,76.7,70.4,30.28,NNE,14,2.0,2.0,81,0.00,,,0.00,Wunderground v.1.15,2013-07-14 14:50:00,
2013-07-14 10:55:00,76.8,70.2,30.28,ENE,60,1.0,2.0,80,0.00,,,0.00,Wunderground v.1.15,2013-07-14 14:55:00,
2013-07-14 11:00:00,77.1,69.7,30.28,NNE,19,1.0,1.0,78,0.00,,,0.00,Wunderground v.1.15,2013-07-14 15:00:00,
2013-07-14 11:10:00,77.5,68.6,30.28,North,360,2.0,2.0,74,0.00,,,0.00,Wunderground v.1.15,2013-07-14 15:10:00,
2013-07-14 11:15:00,77.7,68.7,30.28,NNE,14,2.0,2.0,74,0.00,,,0.00,Wunderground v.1.15,2013-07-14 15:15:00,
2013-07-14 11:20:00,78.0,69.4,30.27,NNE,13,1.0,1.0,75,0.00,,,0.00,Wunderground v.1.15,2013-07-14 15:20:00,
2013-07-14 11:25:00,78.2,70.0,30.27,ENE,61,1.0,3.0,76,0.00,,,0.00,Wunderground v.1.15,2013-07-14 15:25:00,
2013-07-14 11:30:00,78.4,70.2,30.27,ENE,60,1.0,1.0,76,0.00,,,0.00,Wunderground v.1.15,2013-07-14 15:30:00,
2013-07-14 11:40:00,78.2,68.8,30.27,NE,34,0.0,1.0,73,0.00,,,0.00,Wunderground v.1.15,2013-07-14 15:40:00,
2013-07-14 11:45:00,78.3,69.7,30.27,NE,34,0.0,1.0,75,0.00,,,0.00,Wunderground v.1.15,2013-07-14 15:45:00,
2013-07-14 11:50:00,78.7,69.3,30.27,WSW,258,0.0,2.0,73,0.00,,,0.00,Wunderground v.1.15,2013-07-14 15:50:00,
2013-07-14 11:55:00,79.4,69.6,30.27,SW,225,1.0,2.0,72,0.00,,,0.00,Wunderground v.1.15,2013-07-14 15:55:00,
2013-07-14 12:00:00,79.3,69.5,30.27,SW,219,2.0,2.0,72,0.00,,,0.00,Wunderground v.1.15,2013-07-14 16:00:00,
2013-07-14 12:05:00,79.3,67.8,30.27,South,185,2.0,3.0,68,0.00,,,0.00,Wunderground v.1.15,2013-07-14 16:05:00,
2013-07-14 12:10:00,79.6,68.5,30.26,West,269,1.0,1.0,69,0.00,,,0.00,Wunderground v.1.15,2013-07-14 16:10:00,
2013-07-14 12:20:00,79.9,68.8,30.26,SW,234,1.0,3.0,69,0.00,,,0.00,Wunderground v.1.15,2013-07-14 16:20:00,
2013-07-14 12:25:00,79.6,68.5,30.26,SW,234,2.0,3.0,69,0.00,,,0.00,Wunderground v.1.15,2013-07-14 16:25:00,
2013-07-14 12:31:00,79.3,68.2,30.26,NNE,32,2.0,2.0,69,0.00,,,0.00,Wunderground v.1.15,2013-07-14 16:31:00,
2013-07-14 12:35:00,79.6,69.0,30.26,East,87,1.0,2.0,70,0.00,,,0.00,Wunderground v.1.15,2013-07-14 16:35:00,
2013-07-14 12:40:00,79.6,67.7,30.26,ESE,103,1.0,1.0,67,0.00,,,0.00,Wunderground v.1.15,2013-07-14 16:40:00,
2013-07-14 12:46:00,79.8,69.6,30.25,East,84,1.0,1.0,71,0.00,,,0.00,Wunderground v.1.15,2013-07-14 16:46:00,
2013-07-14 12:50:00,80.3,68.8,30.25,East,84,1.0,1.0,68,0.00,,,0.00,Wunderground v.1.15,2013-07-14 16:50:00,
2013-07-14 12:55:00,81.1,68.2,30.25,East,84,1.0,2.0,65,0.00,,,0.00,Wunderground v.1.15,2013-07-14 16:55:00,
2013-07-14 13:00:00,81.6,68.7,30.25,NNW,340,1.0,2.0,65,0.00,,,0.00,Wunderground v.1.15,2013-07-14 17:00:00,
2013-07-14 13:05:00,81.2,67.9,30.25,North,360,2.0,2.0,64,0.00,,,0.00,Wunderground v.1.15,2013-07-14 17:05:00,
2013-07-14 13:10:00,81.5,68.1,30.26,NW,321,2.0,2.0,64,0.00,,,0.00,Wunderground v.1.15,2013-07-14 17:10:00,
2013-07-14 13:15:00,81.8,67.5,30.25,NW,321,1.0,2.0,62,0.00,,,0.00,Wunderground v.1.15,2013-07-14 17:15:00,
2013-07-14 13:20:00,82.1,70.1,30.25,NNW,328,1.0,1.0,67,0.00,,,0.00,Wunderground v.1.15,2013-07-14 17:20:00,
2013-07-14 13:25:00,82.4,67.6,30.25,North,5,1.0,1.0,61,0.00,,,0.00,Wunderground v.1.15,2013-07-14 17:25:00,
2013-07-14 13:30:00,82.3,67.5,30.25,North,355,1.0,2.0,61,0.00,,,0.00,Wunderground v.1.15,2013-07-14 17:30:00,
2013-07-14 13:40:00,81.9,71.2,30.25,WSW,244,2.0,2.0,70,0.00,,,0.00,Wunderground v.1.15,2013-07-14 17:40:00,
2013-07-14 13:45:00,82.0,69.1,30.25,SW,217,2.0,2.0,65,0.00,,,0.00,Wunderground v.1.15,2013-07-14 17:45:00,
2013-07-14 13:51:00,81.5,68.6,30.25,SW,232,2.0,2.0,65,0.00,,,0.00,Wunderground v.1.15,2013-07-14 17:51:00,
2013-07-14 14:00:00,81.4,70.7,30.24,North,360,1.0,1.0,70,0.00,,,0.00,Wunderground v.1.15,2013-07-14 18:00:00,
2013-07-14 14:10:00,82.8,68.0,30.24,NNW,343,1.0,1.0,61,0.00,,,0.00,Wunderground v.1.15,2013-07-14 18:10:00,
2013-07-14 14:15:00,83.2,68.3,30.24,West,281,1.0,1.0,61,0.00,,,0.00,Wunderground v.1.15,2013-07-14 18:15:00,
2013-07-14 14:20:00,82.9,68.5,30.24,West,275,2.0,2.0,62,0.00,,,0.00,Wunderground v.1.15,2013-07-14 18:20:00,
2013-07-14 14:26:00,82.4,68.1,30.24,WNW,296,1.0,2.0,62,0.00,,,0.00,Wunderground v.1.15,2013-07-14 18:26:00,
2013-07-14 14:35:00,82.0,68.2,30.23,WNW,295,0.0,1.0,63,0.00,,,0.00,Wunderground v.1.15,2013-07-14 18:35:00,
2013-07-14 14:40:00,81.8,67.0,30.24,WNW,295,1.0,1.0,61,0.00,,,0.00,Wunderground v.1.15,2013-07-14 18:40:00,
2013-07-14 14:45:00,81.9,68.5,30.24,WNW,295,0.0,1.0,64,0.00,,,0.00,Wunderground v.1.15,2013-07-14 18:45:00,
2013-07-14 14:50:00,81.8,68.9,30.23,SSW,197,1.0,1.0,65,0.00,,,0.00,Wunderground v.1.15,2013-07-14 18:50:00,
2013-07-14 14:55:00,82.1,69.6,30.23,NW,316,2.0,3.0,66,0.00,,,0.00,Wunderground v.1.15,2013-07-14 18:55:00,
2013-07-14 15:01:00,82.7,68.8,30.23,SW,226,1.0,2.0,63,0.00,,,0.00,Wunderground v.1.15,2013-07-14 19:01:00,
2013-07-14 15:05:00,83.1,69.2,30.23,SW,234,1.0,2.0,63,0.00,,,0.00,Wunderground v.1.15,2013-07-14 19:05:00,
2013-07-14 15:10:00,83.4,69.0,30.23,WSW,238,1.0,3.0,62,0.00,,,0.00,Wunderground v.1.15,2013-07-14 19:10:00,
2013-07-14 15:15:00,83.4,69.9,30.23,SSW,207,2.0,3.0,64,0.00,,,0.00,Wunderground v.1.15,2013-07-14 19:15:00,
2013-07-14 15:20:00,83.6,68.7,30.22,SSW,207,1.0,1.0,61,0.00,,,0.00,Wunderground v.1.15,2013-07-14 19:20:00,
2013-07-14 15:25:00,83.8,69.4,30.22,SSW,207,1.0,2.0,62,0.00,,,0.00,Wunderground v.1.15,2013-07-14 19:25:00,
2013-07-14 15:30:00,83.4,69.5,30.22,WSW,256,3.0,3.0,63,0.00,,,0.00,Wunderground v.1.15,2013-07-14 19:30:00,
2013-07-14 15:40:00,83.8,70.3,30.22,WSW,248,1.0,1.0,64,0.00,,,0.00,Wunderground v.1.15,2013-07-14 19:40:00,
2013-07-14 15:45:00,84.5,69.6,30.22,NNW,348,1.0,6.0,61,0.00,,,0.00,Wunderground v.1.15,2013-07-14 19:45:00,
2013-07-14 15:50:00,84.6,70.1,30.21,NNW,341,1.0,1.0,62,0.00,,,0.00,Wunderground v.1.15,2013-07-14 19:50:00,
2013-07-14 15:55:00,85.0,69.1,30.21,NNE,26,2.0,2.0,59,0.00,,,0.00,Wunderground v.1.15,2013-07-14 19:55:00,
2013-07-14 16:05:00,85.1,70.6,30.21,SW,231,2.0,5.0,62,0.00,,,0.00,Wunderground v.1.15,2013-07-14 20:05:00,
2013-07-14 16:10:00,85.0,69.1,30.21,SW,222,2.0,2.0,59,0.00,,,0.00,Wunderground v.1.15,2013-07-14 20:10:00,
2013-07-14 16:15:00,84.5,69.6,30.21,North,360,2.0,2.0,61,0.00,,,0.00,Wunderground v.1.15,2013-07-14 20:15:00,
2013-07-14 16:20:00,84.6,71.1,30.21,North,360,1.0,1.0,64,0.00,,,0.00,Wunderground v.1.15,2013-07-14 20:20:00,
2013-07-14 16:25:00,84.9,69.0,30.21,WNW,300,0.0,1.0,59,0.00,,,0.00,Wunderground v.1.15,2013-07-14 20:25:00,
2013-07-14 16:30:00,84.9,69.5,30.21,North,10,1.0,1.0,60,0.00,,,0.00,Wunderground v.1.15,2013-07-14 20:30:00,
2013-07-14 16:35:00,84.9,69.0,30.21,NNW,341,1.0,2.0,59,0.00,,,0.00,Wunderground v.1.15,2013-07-14 20:35:00,
2013-07-14 16:40:00,85.0,69.6,30.20,WSW,247,1.0,2.0,60,0.00,,,0.00,Wunderground v.1.15,2013-07-14 20:40:00,
2013-07-14 16:45:00,85.0,69.6,30.20,NNW,348,1.0,5.0,60,0.00,,,0.00,Wunderground v.1.15,2013-07-14 20:45:00,
2013-07-14 16:50:00,84.7,68.3,30.20,NW,310,2.0,3.0,58,0.00,,,0.00,Wunderground v.1.15,2013-07-14 20:50:00,
2013-07-14 16:55:00,84.6,69.2,30.20,WNW,284,3.0,3.0,60,0.00,,,0.00,Wunderground v.1.15,2013-07-14 20:55:00,
2013-07-14 17:00:00,83.7,68.3,30.20,WSW,238,2.0,2.0,60,0.00,,,0.00,Wunderground v.1.15,2013-07-14 21:00:00,
2013-07-14 17:05:00,83.0,69.1,30.20,WSW,238,1.0,2.0,63,0.00,,,0.00,Wunderground v.1.15,2013-07-14 21:05:00,
2013-07-14 17:10:00,83.2,71.1,30.20,WSW,238,1.0,1.0,67,0.00,,,0.00,Wunderground v.1.15,2013-07-14 21:10:00,
2013-07-14 17:15:00,83.7,69.3,30.20,NNW,342,1.0,2.0,62,0.00,,,0.00,Wunderground v.1.15,2013-07-14 21:15:00,
2013-07-14 17:20:00,83.9,69.0,30.20,SW,224,2.0,4.0,61,0.00,,,0.00,Wunderground v.1.15,2013-07-14 21:20:00,
2013-07-14 17:25:00,83.9,70.0,30.20,SW,232,3.0,4.0,63,0.00,,,0.00,Wunderground v.1.15,2013-07-14 21:25:00,
2013-07-14 17:30:00,84.0,69.1,30.19,ENE,62,3.0,3.0,61,0.00,,,0.00,Wunderground v.1.15,2013-07-14 21:30:00,
2013-07-14 17:35:00,83.8,68.9,30.20,WSW,250,1.0,3.0,61,0.00,,,0.00,Wunderground v.1.15,2013-07-14 21:35:00,
2013-07-14 17:40:00,83.5,70.0,30.19,WSW,250,1.0,1.0,64,0.00,,,0.00,Wunderground v.1.15,2013-07-14 21:40:00,
2013-07-14 17:51:00,84.0,70.0,30.19,SW,222,1.0,2.0,63,0.00,,,0.00,Wunderground v.1.15,2013-07-14 21:51:00,
2013-07-14 17:55:00,84.2,69.8,30.20,SW,232,1.0,3.0,62,0.00,,,0.00,Wunderground v.1.15,2013-07-14 21:55:00,
2013-07-14 18:00:00,84.3,69.4,30.20,WSW,252,1.0,1.0,61,0.00,,,0.00,Wunderground v.1.15,2013-07-14 22:00:00,
2013-07-14 18:05:00,84.4,69.0,30.19,West,265,1.0,1.0,60,0.00,,,0.00,Wunderground v.1.15,2013-07-14 22:05:00,
2013-07-14 18:10:00,84.4,69.5,30.20,SW,231,1.0,3.0,61,0.00,,,0.00,Wunderground v.1.15,2013-07-14 22:10:00,
2013-07-14 18:15:00,84.0,68.6,30.20,SW,225,2.0,4.0,60,0.00,,,0.00,Wunderground v.1.15,2013-07-14 22:15:00,
2013-07-14 18:25:00,82.9,69.0,30.20,WNW,283,2.0,3.0,63,0.00,,,0.00,Wunderground v.1.15,2013-07-14 22:25:00,
2013-07-14 18:30:00,82.9,69.5,30.19,SW,234,2.0,2.0,64,0.00,,,0.00,Wunderground v.1.15,2013-07-14 22:30:00,
2013-07-14 18:35:00,83.0,69.6,30.19,West,261,1.0,2.0,64,0.00,,,0.00,Wunderground v.1.15,2013-07-14 22:35:00,
2013-07-14 18:40:00,83.1,68.7,30.19,NNW,338,1.0,1.0,62,0.00,,,0.00,Wunderground v.1.15,2013-07-14 22:40:00,
2013-07-14 18:45:00,83.1,69.2,30.19,NNW,338,1.0,1.0,63,0.00,,,0.00,Wunderground v.1.15,2013-07-14 22:45:00,
2013-07-14 18:50:00,83.2,70.2,30.19,NNW,338,0.0,0.0,65,0.00,,,0.00,Wunderground v.1.15,2013-07-14 22:50:00,
2013-07-14 19:00:00,83.2,70.2,30.19,WSW,244,0.0,2.0,65,0.00,,,0.00,Wunderground v.1.15,2013-07-14 23:00:00,
2013-07-14 19:05:00,82.8,70.7,30.19,SW,229,0.0,2.0,67,0.00,,,0.00,Wunderground v.1.15,2013-07-14 23:05:00,
2013-07-14 19:10:00,82.2,71.0,30.19,SW,229,0.0,0.0,69,0.00,,,0.00,Wunderground v.1.15,2013-07-14 23:10:00,
2013-07-14 19:20:00,80.1,71.8,30.19,SW,229,0.0,0.0,76,0.00,,,0.00,Wunderground v.1.15,2013-07-14 23:20:00,
2013-07-14 19:25:00,78.9,71.1,30.19,SW,229,0.0,0.0,77,0.00,,,0.00,Wunderground v.1.15,2013-07-14 23:25:00,
2013-07-14 19:30:00,78.0,71.0,30.19,SW,229,0.0,1.0,79,0.00,,,0.00,Wunderground v.1.15,2013-07-14 23:30:00,
2013-07-14 19:35:00,76.9,70.3,30.19,SW,229,0.0,1.0,80,0.00,,,0.00,Wunderground v.1.15,2013-07-14 23:35:00,
2013-07-14 19:40:00,76.3,70.8,30.19,SW,229,0.0,0.0,83,0.00,,,0.00,Wunderground v.1.15,2013-07-14 23:40:00,
2013-07-14 19:45:00,75.6,70.1,30.19,SW,229,0.0,0.0,83,0.00,,,0.00,Wunderground v.1.15,2013-07-14 23:45:00,
2013-07-14 19:50:00,75.1,69.9,30.19,SW,229,0.0,0.0,84,0.00,,,0.00,Wunderground v.1.15,2013-07-14 23:50:00,
2013-07-14 20:00:00,74.2,69.4,30.19,SW,229,0.0,0.0,85,0.00,,,0.00,Wunderground v.1.15,2013-07-15 00:00:00,
2013-07-14 20:05:00,73.8,69.3,30.19,SW,229,0.0,0.0,86,0.00,,,0.00,Wunderground v.1.15,2013-07-15 00:05:00,
2013-07-14 20:15:00,73.0,68.9,30.19,SW,229,0.0,0.0,87,0.00,,,0.00,Wunderground v.1.15,2013-07-15 00:15:00,
2013-07-14 20:20:00,72.7,68.9,30.19,SW,229,0.0,0.0,88,0.00,,,0.00,Wunderground v.1.15,2013-07-15 00:20:00,
2013-07-14 20:25:00,72.5,68.7,30.19,SW,229,0.0,0.0,88,0.00,,,0.00,Wunderground v.1.15,2013-07-15 00:25:00,
2013-07-14 20:30:00,72.2,68.4,30.20,SW,229,0.0,0.0,88,0.00,,,0.00,Wunderground v.1.15,2013-07-15 00:30:00,
2013-07-14 20:35:00,72.1,68.3,30.20,SW,229,0.0,0.0,88,0.00,,,0.00,Wunderground v.1.15,2013-07-15 00:35:00,
2013-07-14 20:45:00,71.7,68.0,30.20,SW,229,0.0,0.0,88,0.00,,,0.00,Wunderground v.1.15,2013-07-15 00:45:00,
2013-07-14 20:50:00,71.6,67.9,30.20,SW,229,0.0,0.0,88,0.00,,,0.00,Wunderground v.1.15,2013-07-15 00:50:00,
2013-07-14 20:55:00,71.4,68.0,30.20,SW,229,0.0,0.0,89,0.00,,,0.00,Wunderground v.1.15,2013-07-15 00:55:00,
2013-07-14 21:00:00,71.1,67.7,30.20,SW,229,0.0,0.0,89,0.00,,,0.00,Wunderground v.1.15,2013-07-15 01:00:00,
2013-07-14 21:05:00,70.9,67.5,30.20,SW,229,0.0,0.0,89,0.00,,,0.00,Wunderground v.1.15,2013-07-15 01:05:00,
2013-07-14 21:10:00,70.6,67.2,30.20,SW,229,0.0,0.0,89,0.00,,,0.00,Wunderground v.1.15,2013-07-15 01:10:00,
2013-07-14 21:15:00,70.2,66.8,30.20,SW,229,0.0,0.0,89,0.00,,,0.00,Wunderground v.1.15,2013-07-15 01:15:00,
2013-07-14 21:20:00,69.7,66.3,30.20,SW,229,0.0,0.0,89,0.00,,,0.00,Wunderground v.1.15,2013-07-15 01:20:00,
2013-07-14 21:30:00,69.0,66.3,30.21,SW,229,0.0,0.0,91,0.00,,,0.00,Wunderground v.1.15,2013-07-15 01:30:00,
2013-07-14 21:35:00,68.7,66.0,30.21,SW,229,0.0,0.0,91,0.00,,,0.00,Wunderground v.1.15,2013-07-15 01:35:00,
2013-07-14 21:40:00,68.4,65.7,30.21,SW,229,0.0,0.0,91,0.00,,,0.00,Wunderground v.1.15,2013-07-15 01:40:00,
2013-07-14 21:50:00,67.9,65.5,30.21,SW,229,0.0,0.0,92,0.00,,,0.00,Wunderground v.1.15,2013-07-15 01:50:00,
2013-07-14 21:55:00,67.6,65.2,30.21,SW,229,0.0,0.0,92,0.00,,,0.00,Wunderground v.1.15,2013-07-15 01:55:00,
2013-07-14 22:05:00,67.2,65.1,30.21,SW,229,0.0,0.0,93,0.00,,,0.00,Wunderground v.1.15,2013-07-15 02:05:00,
2013-07-14 22:10:00,66.9,64.8,30.21,SW,229,0.0,0.0,93,0.00,,,0.00,Wunderground v.1.15,2013-07-15 02:10:00,
2013-07-14 22:15:00,66.7,64.6,30.21,SW,229,0.0,0.0,93,0.00,,,0.00,Wunderground v.1.15,2013-07-15 02:15:00,
2013-07-14 22:20:00,66.5,64.4,30.21,SW,229,0.0,0.0,93,0.00,,,0.00,Wunderground v.1.15,2013-07-15 02:20:00,
2013-07-14 22:25:00,66.3,64.2,30.21,SW,229,0.0,0.0,93,0.00,,,0.00,Wunderground v.1.15,2013-07-15 02:25:00,
2013-07-14 22:35:00,65.9,64.1,30.21,SW,229,0.0,0.0,94,0.00,,,0.00,Wunderground v.1.15,2013-07-15 02:35:00,
2013-07-14 22:40:00,65.8,64.0,30.21,SW,229,0.0,0.0,94,0.00,,,0.00,Wunderground v.1.15,2013-07-15 02:40:00,
2013-07-14 22:45:00,65.6,63.8,30.21,SW,229,0.0,0.0,94,0.00,,,0.00,Wunderground v.1.15,2013-07-15 02:45:00,
2013-07-14 22:50:00,65.4,63.6,30.21,SW,229,0.0,0.0,94,0.00,,,0.00,Wunderground v.1.15,2013-07-15 02:50:00,
2013-07-14 22:56:00,65.3,63.5,30.21,SW,229,0.0,0.0,94,0.00,,,0.00,Wunderground v.1.15,2013-07-15 02:56:00,
2013-07-14 23:05:00,65.0,63.5,30.21,SW,229,0.0,0.0,95,0.00,,,0.00,Wunderground v.1.15,2013-07-15 03:05:00,
2013-07-14 23:10:00,65.0,63.5,30.21,SW,229,0.0,0.0,95,0.00,,,0.00,Wunderground v.1.15,2013-07-15 03:10:00,
2013-07-14 23:15:00,65.0,63.8,30.21,SW,229,0.0,0.0,96,0.00,,,0.00,Wunderground v.1.15,2013-07-15 03:15:00,
2013-07-14 23:20:00,64.9,63.4,30.21,SW,229,0.0,0.0,95,0.00,,,0.00,Wunderground v.1.15,2013-07-15 03:20:00,
2013-07-14 23:25:00,64.8,63.3,30.21,SW,229,0.0,0.0,95,0.00,,,0.00,Wunderground v.1.15,2013-07-15 03:25:00,
2013-07-14 23:30:00,64.7,63.2,30.20,SW,229,0.0,0.0,95,0.00,,,0.00,Wunderground v.1.15,2013-07-15 03:30:00,
2013-07-14 23:35:00,64.7,63.5,30.21,SW,229,0.0,0.0,96,0.00,,,0.00,Wunderground v.1.15,2013-07-15 03:35:00,
2013-07-14 23:40:00,64.7,63.5,30.21,SW,229,0.0,0.0,96,0.00,,,0.00,Wunderground v.1.15,2013-07-15 03:40:00,
2013-07-14 23:45:00,64.6,63.4,30.21,SW,229,0.0,0.0,96,0.00,,,0.00,Wunderground v.1.15,2013-07-15 03:45:00,
2013-07-14 23:50:00,64.5,63.3,30.21,SW,229,0.0,0.0,96,0.00,,,0.00,Wunderground v.1.15,2013-07-15 03:50:00,
2013-07-14 23:55:00,64.3,63.1,30.21,SW,229,0.0,0.0,96,0.00,,,0.00,Wunderground v.1.15,2013-07-15 03:55:00,